Time;durP1;ratioP1;P1;durP2;ratioP2;P2;SDS_P1;SDS_P2;PMS_P1;PMS_P2;Temp;Humidity;BMP_temperature;BMP_pressure;BME280_temperature;BME280_humidity;BME280_pressure;Samples;Min_cycle;Max_cycle;Signal;HPM_P1;HPM_P2
2021/06/21 00:02:17;;;;;;;6.63;1.52;;;27.40;54.40;;;;;;5014562;28;20040;-61
2021/06/21 00:04:43;;;;;;;4.88;0.82;;;27.30;54.40;;;;;;5013932;28;20034;-59
2021/06/21 00:07:09;;;;;;;3.40;1.17;;;27.30;54.30;;;;;;5013210;28;20034;-61
2021/06/21 00:09:34;;;;;;;4.85;1.42;;;27.30;54.40;;;;;;5014390;28;20418;-62
2021/06/21 00:12:00;;;;;;;5.82;1.20;;;27.30;54.40;;;;;;5013253;28;20068;-61
2021/06/21 00:14:26;;;;;;;5.72;1.30;;;27.30;54.50;;;;;;5014179;28;20030;-61
2021/06/21 00:16:51;;;;;;;2.80;1.38;;;27.30;54.40;;;;;;5013742;28;20034;-60
2021/06/21 00:19:17;;;;;;;5.30;1.20;;;27.30;54.50;;;;;;5013246;28;20590;-60
2021/06/21 00:21:43;;;;;;;3.70;1.08;;;27.30;54.60;;;;;;5013970;28;20060;-62
2021/06/21 00:24:08;;;;;;;5.45;1.00;;;27.30;54.60;;;;;;5012978;28;20100;-61
2021/06/21 00:26:34;;;;;;;8.60;2.28;;;27.30;54.90;;;;;;5013828;28;20034;-61
2021/06/21 00:29:00;;;;;;;5.88;1.17;;;27.30;54.70;;;;;;5013100;28;20030;-59
2021/06/21 00:31:26;;;;;;;5.05;1.30;;;27.30;54.80;;;;;;5013325;28;20026;-61
2021/06/21 00:33:51;;;;;;;7.35;1.20;;;27.30;54.70;;;;;;5012979;28;20494;-60
2021/06/21 00:36:17;;;;;;;4.47;1.10;;;27.30;54.60;;;;;;5012646;28;20513;-60
2021/06/21 00:38:43;;;;;;;4.63;1.10;;;27.30;54.60;;;;;;5013353;28;20030;-61
2021/06/21 00:41:08;;;;;;;3.78;0.95;;;27.30;55.50;;;;;;5012385;28;20434;-60
2021/06/21 00:43:34;;;;;;;5.85;1.15;;;27.30;54.80;;;;;;5013893;28;20034;-60
2021/06/21 00:46:01;;;;;;;6.07;1.77;;;27.30;54.90;;;;;;5012574;28;20161;-59
2021/06/21 00:48:26;;;;;;;6.30;1.33;;;27.30;54.90;;;;;;5006925;28;20030;-61
2021/06/21 00:50:52;;;;;;;3.55;1.35;;;27.30;54.90;;;;;;5013400;28;20579;-61
2021/06/21 00:53:19;;;;;;;4.43;1.13;;;27.30;55.00;;;;;;5012355;28;20549;-61
2021/06/21 00:55:45;;;;;;;3.72;1.00;;;27.20;54.90;;;;;;5013000;28;20053;-61
2021/06/21 00:58:11;;;;;;;8.55;1.55;;;27.30;54.90;;;;;;5012523;28;20034;-60
2021/06/21 01:00:37;;;;;;;3.40;1.13;;;27.20;54.70;;;;;;5013126;28;20391;-60
2021/06/21 01:03:05;;;;;;;7.07;1.98;;;27.20;54.70;;;;;;5012319;28;20030;-60
2021/06/21 01:05:34;;;;;;;7.05;1.50;;;27.20;54.90;;;;;;5012884;28;20104;-60
2021/06/21 01:08:00;;;;;;;7.85;2.03;;;27.20;54.80;;;;;;5010161;28;20141;-58
2021/06/21 01:10:27;;;;;;;7.43;1.30;;;27.20;54.30;;;;;;5012952;28;20045;-60
2021/06/21 01:13:08;;;;;;;7.85;1.58;;;27.20;54.30;;;;;;5012923;28;20038;-60
2021/06/21 01:15:44;;;;;;;7.97;1.90;;;27.10;54.40;;;;;;5012894;28;20371;-62
2021/06/21 01:18:17;;;;;;;8.25;1.83;;;27.10;54.10;;;;;;5011219;28;20030;-62
2021/06/21 01:21:07;;;;;;;6.90;1.48;;;27.10;54.10;;;;;;5012360;28;20546;-62
2021/06/21 01:24:00;;;;;;;6.90;1.42;;;27.10;54.20;;;;;;5005818;28;20117;-61
2021/06/21 01:26:33;;;;;;;7.60;1.70;;;27.20;54.40;;;;;;5012123;28;20033;-61
2021/06/21 01:29:04;;;;;;;7.20;1.83;;;27.20;54.40;;;;;;5012162;28;20037;-59
2021/06/21 01:32:22;;;;;;;5.75;1.38;;;27.20;54.30;;;;;;5012477;28;20080;-62
2021/06/21 01:34:51;;;;;;;6.07;1.58;;;27.20;54.40;;;;;;4988204;28;20042;-60
2021/06/21 01:37:18;;;;;;;4.65;1.80;;;27.20;54.50;;;;;;5005315;28;20042;-61
2021/06/21 01:39:48;;;;;;;7.18;1.23;;;27.20;54.50;;;;;;5012442;28;20048;-59
2021/06/21 01:42:16;;;;;;;8.50;1.40;;;27.20;54.50;;;;;;5010560;28;20490;-62
2021/06/21 01:44:49;;;;;;;7.57;1.38;;;27.20;54.60;;;;;;5043768;28;20048;-59
2021/06/21 01:47:16;;;;;;;9.95;1.52;;;27.20;54.60;;;;;;5011121;28;20029;-60
2021/06/21 01:49:48;;;;;;;5.78;1.35;;;27.20;54.60;;;;;;5012041;28;20045;-61
2021/06/21 01:52:15;;;;;;;7.80;1.55;;;27.20;54.50;;;;;;5011096;28;20121;-60
2021/06/21 01:54:56;;;;;;;5.60;1.63;;;27.10;54.40;;;;;;5012165;28;20088;-61
2021/06/21 01:57:28;;;;;;;6.43;1.60;;;27.10;54.50;;;;;;5011484;28;20025;-61
2021/06/21 01:59:55;;;;;;;6.50;1.73;;;27.20;54.50;;;;;;5012558;28;20065;-61
2021/06/21 02:02:22;;;;;;;4.68;1.45;;;27.10;54.30;;;;;;5011154;28;20262;-61
2021/06/21 02:04:52;;;;;;;6.97;2.05;;;27.10;54.40;;;;;;5043414;28;20092;-60
2021/06/21 02:07:19;;;;;;;8.30;1.33;;;27.10;54.60;;;;;;5010669;28;20092;-60
2021/06/21 02:09:46;;;;;;;3.67;1.33;;;27.10;54.60;;;;;;5012259;28;20056;-60
2021/06/21 02:12:13;;;;;;;7.43;1.48;;;27.10;54.70;;;;;;5011060;28;20044;-60
2021/06/21 02:14:40;;;;;;;5.63;1.40;;;27.10;54.80;;;;;;5011555;28;20100;-60
2021/06/21 02:17:08;;;;;;;4.57;1.63;;;27.10;54.80;;;;;;5010591;28;20486;-60
2021/06/21 02:19:34;;;;;;;5.70;1.33;;;27.10;54.80;;;;;;5011803;28;20065;-60
2021/06/21 02:22:00;;;;;;;8.65;1.75;;;27.10;54.80;;;;;;5018713;28;20061;-59
2021/06/21 02:24:26;;;;;;;4.85;2.03;;;27.10;54.90;;;;;;5025683;28;20040;-61
2021/06/21 02:26:53;;;;;;;5.43;1.33;;;27.10;55.00;;;;;;5017435;28;20461;-60
2021/06/21 02:29:22;;;;;;;8.45;1.60;;;27.10;55.00;;;;;;5010339;28;20030;-60
2021/06/21 02:31:50;;;;;;;5.65;1.25;;;27.10;55.00;;;;;;5011009;28;20022;-60
2021/06/21 02:34:16;;;;;;;5.70;1.70;;;27.10;55.00;;;;;;5010520;28;20049;-60
2021/06/21 02:36:42;;;;;;;5.55;1.60;;;27.10;54.90;;;;;;5011168;28;20543;-60
2021/06/21 02:39:10;;;;;;;9.07;1.70;;;27.10;54.80;;;;;;5010786;28;20379;-61
2021/06/21 02:41:36;;;;;;;7.60;1.83;;;27.10;54.80;;;;;;5026912;28;20080;-61
2021/06/21 02:44:03;;;;;;;5.47;1.70;;;27.10;54.90;;;;;;5010637;28;20514;-59
2021/06/21 02:46:28;;;;;;;5.60;1.42;;;27.10;54.90;;;;;;5011699;28;20030;-60
2021/06/21 02:48:54;;;;;;;8.50;2.08;;;27.10;54.90;;;;;;5011111;28;20022;-62
2021/06/21 02:51:31;;;;;;;5.25;1.45;;;27.10;54.90;;;;;;5010453;28;20066;-61
2021/06/21 02:54:07;;;;;;;4.35;1.50;;;27.10;54.90;;;;;;5011554;28;20028;-62
2021/06/21 02:56:45;;;;;;;4.93;1.65;;;27.10;54.80;;;;;;5011118;28;20026;-61
2021/06/21 02:59:17;;;;;;;7.38;1.75;;;27.10;54.80;;;;;;5010593;28;20391;-60
2021/06/21 03:01:54;;;;;;;6.38;1.50;;;27.10;54.70;;;;;;5011315;28;20494;-60
2021/06/21 03:04:22;;;;;;;7.72;2.38;;;27.10;54.70;;;;;;5010131;28;20044;-60
2021/06/21 03:06:50;;;;;;;7.07;1.60;;;27.10;54.60;;;;;;5003050;28;20126;-59
2021/06/21 03:09:18;;;;;;;12.02;2.20;;;27.10;54.70;;;;;;5003127;28;20029;-61
2021/06/21 03:11:48;;;;;;;8.32;1.70;;;27.10;54.70;;;;;;5011540;28;20029;-59
2021/06/21 03:14:14;;;;;;;14.70;2.33;;;27.10;54.50;;;;;;5010409;28;20044;-60
2021/06/21 03:16:42;;;;;;;4.65;1.10;;;27.10;54.50;;;;;;5011234;28;20026;-60
2021/06/21 03:19:11;;;;;;;7.82;1.80;;;27.10;54.40;;;;;;5010339;28;20103;-60
2021/06/21 03:21:36;;;;;;;6.95;1.55;;;27.10;54.30;;;;;;5006820;28;20045;-61
2021/06/21 03:24:02;;;;;;;7.18;1.60;;;27.10;54.30;;;;;;5005737;28;20066;-59
2021/06/21 03:26:30;;;;;;;8.85;1.92;;;27.10;54.30;;;;;;5002021;28;20026;-61
2021/06/21 03:28:56;;;;;;;6.32;1.65;;;27.10;54.10;;;;;;5007978;28;20030;-61
2021/06/21 03:31:24;;;;;;;3.78;1.38;;;27.10;53.90;;;;;;5007703;28;20038;-61
2021/06/21 03:33:51;;;;;;;10.60;1.88;;;27.10;53.90;;;;;;5008266;28;20541;-61
2021/06/21 03:36:17;;;;;;;7.50;2.10;;;27.10;53.90;;;;;;4999819;28;20034;-61
2021/06/21 03:38:43;;;;;;;7.68;1.50;;;27.10;53.70;;;;;;5005130;28;20038;-61
2021/06/21 03:41:10;;;;;;;4.40;1.63;;;27.00;53.60;;;;;;5003516;28;20038;-61
2021/06/21 03:43:36;;;;;;;9.48;2.35;;;27.00;53.60;;;;;;5011266;28;20033;-61
2021/06/21 03:46:05;;;;;;;6.65;1.45;;;27.10;53.70;;;;;;5006890;28;20121;-58
2021/06/21 03:48:31;;;;;;;8.93;2.42;;;27.00;53.60;;;;;;5003510;28;20033;-61
2021/06/21 03:50:57;;;;;;;5.18;1.40;;;27.00;53.50;;;;;;5013837;28;20037;-61
2021/06/21 03:53:29;;;;;;;8.73;1.90;;;27.00;53.40;;;;;;5013175;28;20042;-60
2021/06/21 03:55:55;;;;;;;6.97;1.70;;;27.00;53.20;;;;;;5014493;28;20467;-60
2021/06/21 03:58:21;;;;;;;6.07;1.60;;;27.00;53.10;;;;;;5013370;28;20044;-60
2021/06/21 04:00:47;;;;;;;6.90;1.73;;;27.00;53.10;;;;;;5014445;28;20029;-61
2021/06/21 04:03:13;;;;;;;7.05;1.20;;;27.00;53.20;;;;;;5012075;28;20030;-59
2021/06/21 04:05:40;;;;;;;4.22;1.33;;;27.00;53.10;;;;;;5014375;28;20033;-60
2021/06/21 04:08:07;;;;;;;6.82;1.63;;;27.00;53.00;;;;;;5006965;28;20075;-59
2021/06/21 04:10:33;;;;;;;6.20;1.38;;;27.00;53.00;;;;;;5013906;28;20480;-60
2021/06/21 04:12:59;;;;;;;6.25;1.90;;;27.00;53.00;;;;;;5014015;28;20395;-60
2021/06/21 04:15:30;;;;;;;6.05;1.45;;;27.00;53.00;;;;;;5013626;28;20029;-60
2021/06/21 04:17:58;;;;;;;7.03;1.95;;;27.00;53.00;;;;;;5013702;28;20905;-59
2021/06/21 04:20:25;;;;;;;4.35;1.20;;;27.00;52.90;;;;;;5013256;28;20630;-60
2021/06/21 04:22:51;;;;;;;7.65;1.67;;;27.00;52.90;;;;;;5013555;28;20479;-60
2021/06/21 04:25:18;;;;;;;7.28;2.03;;;27.00;52.90;;;;;;5012627;28;20057;-61
2021/06/21 04:27:44;;;;;;;6.40;1.42;;;26.90;52.80;;;;;;5013981;28;20038;-62
2021/06/21 04:30:13;;;;;;;4.45;1.50;;;26.90;53.00;;;;;;5012644;28;20022;-61
2021/06/21 04:32:39;;;;;;;6.80;1.90;;;26.80;52.90;;;;;;5006018;28;20022;-61
2021/06/21 04:35:12;;;;;;;6.47;1.63;;;26.80;53.20;;;;;;5012788;28;20026;-59
2021/06/21 04:37:38;;;;;;;4.70;1.38;;;26.80;53.20;;;;;;5013670;28;20117;-60
2021/06/21 04:40:07;;;;;;;7.18;1.55;;;26.80;53.00;;;;;;5013138;28;20081;-59
2021/06/21 04:42:32;;;;;;;3.83;1.20;;;26.80;53.00;;;;;;5013548;28;20029;-59
2021/06/21 04:44:58;;;;;;;6.57;2.03;;;26.70;53.10;;;;;;5013966;28;20029;-60
2021/06/21 04:47:24;;;;;;;5.13;2.40;;;26.80;53.00;;;;;;5012409;28;20034;-62
2021/06/21 04:49:54;;;;;;;9.02;1.30;;;26.80;53.10;;;;;;5013502;28;20036;-61
2021/06/21 04:52:22;;;;;;;4.40;1.10;;;26.80;53.00;;;;;;5011994;28;20224;-61
2021/06/21 04:54:49;;;;;;;7.28;2.17;;;26.80;52.90;;;;;;5012915;28;20098;-61
2021/06/21 04:57:16;;;;;;;7.65;1.73;;;26.80;53.50;;;;;;5012636;28;20038;-60
2021/06/21 04:59:42;;;;;;;3.42;1.00;;;26.80;52.90;;;;;;5013728;28;20439;-61
2021/06/21 05:02:07;;;;;;;4.68;1.52;;;26.70;52.60;;;;;;5006069;28;20064;-59
2021/06/21 05:04:33;;;;;;;8.93;1.40;;;26.70;52.70;;;;;;5002455;28;20415;-61
2021/06/21 05:07:00;;;;;;;8.25;1.75;;;26.70;52.70;;;;;;5001316;28;20027;-61
2021/06/21 05:09:25;;;;;;;5.60;1.63;;;26.40;52.90;;;;;;5011511;28;20025;-60
2021/06/21 05:11:51;;;;;;;4.13;1.33;;;25.70;54.50;;;;;;5011999;28;20026;-60
2021/06/21 05:14:17;;;;;;;11.55;1.58;;;25.30;55.40;;;;;;5012207;28;20022;-61
2021/06/21 05:16:43;;;;;;;6.07;1.77;;;25.10;56.50;;;;;;5013771;28;20021;-60
2021/06/21 05:19:09;;;;;;;8.10;1.88;;;25.00;57.20;;;;;;5012843;28;20026;-61
2021/06/21 05:21:35;;;;;;;3.38;1.25;;;24.80;57.40;;;;;;5013431;28;20034;-61
2021/06/21 05:24:01;;;;;;;6.88;1.73;;;24.50;58.00;;;;;;5013379;28;20029;-61
2021/06/21 05:26:26;;;;;;;10.23;1.42;;;24.20;58.50;;;;;;5011562;28;20515;-60
2021/06/21 05:28:52;;;;;;;4.88;1.15;;;24.00;58.70;;;;;;5002341;28;20033;-61
2021/06/21 05:31:18;;;;;;;12.35;2.22;;;24.00;59.20;;;;;;5001912;28;20034;-60
2021/06/21 05:33:44;;;;;;;5.82;1.42;;;23.90;59.50;;;;;;4998207;28;20029;-61
2021/06/21 05:36:10;;;;;;;6.60;1.73;;;23.80;59.80;;;;;;4992442;28;20022;-60
2021/06/21 05:38:36;;;;;;;7.70;1.20;;;23.80;59.80;;;;;;4993452;28;20121;-60
2021/06/21 05:41:03;;;;;;;6.63;1.70;;;23.90;59.40;;;;;;4992947;28;20034;-59
2021/06/21 05:43:29;;;;;;;7.35;1.88;;;24.00;59.40;;;;;;4991737;28;20092;-58
2021/06/21 05:45:55;;;;;;;5.93;1.30;;;24.20;59.20;;;;;;4992883;28;20023;-59
2021/06/21 05:48:21;;;;;;;6.45;1.58;;;23.90;59.50;;;;;;4991996;28;20030;-59
2021/06/21 05:50:47;;;;;;;7.63;1.90;;;24.00;59.50;;;;;;4993204;28;20536;-59
2021/06/21 05:53:13;;;;;;;4.95;1.40;;;24.20;59.10;;;;;;4992509;28;20089;-56
2021/06/21 05:55:38;;;;;;;6.07;2.05;;;24.30;58.50;;;;;;4992853;28;20054;-58
2021/06/21 05:58:04;;;;;;;8.57;1.67;;;24.40;58.20;;;;;;4992984;28;20038;-58
2021/06/21 06:00:30;;;;;;;4.90;1.20;;;24.50;58.30;;;;;;4992171;28;20034;-58
2021/06/21 06:02:55;;;;;;;6.55;1.52;;;24.50;58.30;;;;;;4993260;28;20515;-59
2021/06/21 06:05:21;;;;;;;9.18;1.35;;;24.50;58.30;;;;;;4996005;28;20026;-60
2021/06/21 06:07:47;;;;;;;9.32;1.77;;;24.50;58.50;;;;;;5012271;28;20119;-59
2021/06/21 06:10:14;;;;;;;3.67;1.10;;;24.20;58.90;;;;;;5011653;28;20030;-59
2021/06/21 06:12:40;;;;;;;8.00;1.95;;;24.30;59.60;;;;;;5011993;28;20093;-59
2021/06/21 06:15:07;;;;;;;10.35;1.83;;;24.30;59.40;;;;;;5010787;28;20029;-54
2021/06/21 06:17:33;;;;;;;3.80;1.25;;;24.30;58.60;;;;;;5011289;28;20026;-58
2021/06/21 06:19:59;;;;;;;4.93;1.30;;;24.30;58.80;;;;;;5011607;28;20064;-57
2021/06/21 06:22:24;;;;;;;7.45;1.48;;;24.20;58.00;;;;;;5011482;28;20044;-57
2021/06/21 06:24:50;;;;;;;10.20;1.92;;;24.30;58.30;;;;;;5012219;28;20037;-58
2021/06/21 06:27:16;;;;;;;8.73;2.25;;;24.50;58.30;;;;;;5011264;28;20061;-58
2021/06/21 06:29:41;;;;;;;7.72;1.45;;;24.50;57.90;;;;;;5012258;28;20411;-58
2021/06/21 06:32:07;;;;;;;11.50;1.40;;;24.40;57.90;;;;;;5012179;28;20022;-56
2021/06/21 06:34:33;;;;;;;3.15;1.02;;;24.40;58.20;;;;;;5011301;28;20022;-58
2021/06/21 06:36:59;;;;;;;5.55;1.63;;;24.40;57.80;;;;;;5011948;28;20434;-58
2021/06/21 06:39:25;;;;;;;5.95;1.63;;;24.20;58.10;;;;;;5011399;28;20030;-58
2021/06/21 06:41:51;;;;;;;6.18;2.58;;;24.20;58.00;;;;;;5002103;28;20072;-58
2021/06/21 06:44:16;;;;;;;6.75;1.10;;;24.10;58.00;;;;;;5009625;28;20026;-58
2021/06/21 06:46:42;;;;;;;3.40;1.42;;;24.30;57.80;;;;;;5011504;28;20030;-58
2021/06/21 06:49:08;;;;;;;6.97;1.45;;;24.30;57.90;;;;;;5011313;28;20037;-55
2021/06/21 06:51:39;;;;;;;4.53;1.38;;;24.50;57.50;;;;;;5010885;28;20096;-58
2021/06/21 06:54:10;;;;;;;5.50;1.23;;;24.50;57.60;;;;;;5010439;28;20030;-58
2021/06/21 06:59:20;;;;;;;5.32;1.40;;;24.50;57.10;;;;;;5010804;28;20487;-58
2021/06/21 07:01:46;;;;;;;6.03;1.00;;;24.40;57.00;;;;;;5011581;28;20026;-58
2021/06/21 07:04:12;;;;;;;7.45;1.25;;;24.50;57.00;;;;;;5011186;28;20068;-57
2021/06/21 07:06:38;;;;;;;3.72;1.27;;;24.60;56.80;;;;;;5004910;28;20030;-59
2021/06/21 07:09:04;;;;;;;4.30;0.90;;;24.50;56.80;;;;;;5012460;28;20030;-58
2021/06/21 07:11:35;;;;;;;5.07;1.05;;;24.60;56.80;;;;;;5024163;28;20029;-58
2021/06/21 07:14:01;;;;;;;4.55;1.20;;;24.80;56.30;;;;;;5031400;28;20037;-58
2021/06/21 07:16:26;;;;;;;5.43;1.20;;;24.80;56.60;;;;;;5031538;28;20133;-58
2021/06/21 07:18:52;;;;;;;11.07;1.52;;;24.80;56.60;;;;;;5035394;28;20152;-58
2021/06/21 07:21:18;;;;;;;6.13;1.38;;;24.90;56.60;;;;;;5034830;28;20033;-57
2021/06/21 07:23:43;;;;;;;4.47;1.17;;;25.00;56.40;;;;;;5035068;28;20029;-58
2021/06/21 07:26:09;;;;;;;4.88;1.17;;;24.80;56.30;;;;;;5034824;28;20032;-55
2021/06/21 07:28:35;;;;;;;4.90;1.20;;;24.80;56.50;;;;;;5034361;28;20405;-59
2021/06/21 07:31:01;;;;;;;5.80;1.40;;;24.80;56.40;;;;;;5035117;28;20026;-58
2021/06/21 07:33:27;;;;;;;5.28;1.27;;;24.90;56.50;;;;;;5033602;28;20679;-58
2021/06/21 07:35:53;;;;;;;3.03;1.00;;;25.00;56.10;;;;;;5035054;28;20021;-59
2021/06/21 07:38:19;;;;;;;5.38;1.00;;;25.10;56.30;;;;;;5034016;28;20030;-58
2021/06/21 07:40:45;;;;;;;7.03;1.25;;;25.10;55.50;;;;;;5034900;28;20053;-58
2021/06/21 07:43:11;;;;;;;9.15;1.60;;;24.90;54.80;;;;;;5033780;28;20053;-57
2021/06/21 07:45:36;;;;;;;3.80;1.48;;;25.00;55.00;;;;;;5034615;28;20101;-59
2021/06/21 07:48:02;;;;;;;8.07;1.88;;;24.80;54.90;;;;;;5034763;28;20068;-58
2021/06/21 07:50:31;;;;;;;3.80;1.15;;;24.80;55.50;;;;;;5033713;28;20108;-58
2021/06/21 07:52:58;;;;;;;2.60;0.85;;;24.70;55.40;;;;;;5034244;28;20049;-59
2021/06/21 07:55:27;;;;;;;6.38;1.33;;;25.00;55.20;;;;;;5033876;28;20462;-57
2021/06/21 07:57:53;;;;;;;6.32;1.50;;;25.00;55.10;;;;;;5034581;28;20382;-58
2021/06/21 08:00:22;;;;;;;4.47;1.10;;;25.00;55.00;;;;;;5033448;28;20033;-57
2021/06/21 08:02:48;;;;;;;5.78;1.42;;;25.10;54.60;;;;;;5034447;28;20608;-58
2021/06/21 08:05:14;;;;;;;1.60;0.80;;;25.10;54.50;;;;;;5033421;28;20021;-57
2021/06/21 08:07:42;;;;;;;4.43;1.20;;;25.20;54.60;;;;;;5026736;28;20091;-58
2021/06/21 08:10:08;;;;;;;5.57;1.55;;;25.30;54.40;;;;;;5016017;28;20108;-55
2021/06/21 08:12:33;;;;;;;6.57;1.25;;;25.30;54.80;;;;;;5033849;28;20489;-58
2021/06/21 08:14:59;;;;;;;3.97;1.08;;;25.30;54.70;;;;;;5034499;28;20033;-58
2021/06/21 08:17:25;;;;;;;4.45;1.05;;;25.30;54.40;;;;;;5033444;28;20044;-58
2021/06/21 08:19:50;;;;;;;3.92;1.08;;;25.30;54.80;;;;;;5034243;28;20072;-58
2021/06/21 08:22:22;;;;;;;4.63;1.42;;;25.30;54.60;;;;;;5033494;28;20065;-58
2021/06/21 08:24:51;;;;;;;4.75;1.70;;;25.30;54.20;;;;;;5034359;28;20030;-58
2021/06/21 08:27:18;;;;;;;3.15;1.17;;;25.50;54.30;;;;;;5032647;28;20047;-57
2021/06/21 08:29:45;;;;;;;3.40;1.30;;;25.40;53.70;;;;;;5033039;28;20025;-58
2021/06/21 08:32:11;;;;;;;4.13;1.00;;;25.50;53.30;;;;;;5033424;28;20030;-54
2021/06/21 08:34:37;;;;;;;3.15;1.27;;;25.40;53.70;;;;;;5033823;28;20033;-58
2021/06/21 08:37:03;;;;;;;3.50;1.00;;;25.50;53.90;;;;;;5033615;28;20029;-58
2021/06/21 08:39:29;;;;;;;7.20;1.60;;;25.50;53.50;;;;;;5032789;28;20666;-58
2021/06/21 08:41:55;;;;;;;2.78;0.95;;;25.50;53.10;;;;;;5033647;28;20037;-58
2021/06/21 08:44:20;;;;;;;4.47;0.90;;;25.40;52.90;;;;;;5032403;28;20472;-58
2021/06/21 08:46:49;;;;;;;3.25;1.27;;;25.50;53.30;;;;;;5033557;28;20022;-59
2021/06/21 08:49:15;;;;;;;3.13;1.23;;;25.30;53.40;;;;;;5032622;28;20044;-58
2021/06/21 08:51:41;;;;;;;4.30;0.90;;;25.30;53.40;;;;;;5033371;28;20045;-58
2021/06/21 08:54:07;;;;;;;2.63;1.30;;;25.10;53.60;;;;;;5033217;28;20529;-59
2021/06/21 08:56:33;;;;;;;2.42;0.80;;;25.30;53.30;;;;;;5032895;28;20030;-58
2021/06/21 08:58:58;;;;;;;4.47;1.27;;;25.50;53.20;;;;;;5033432;28;20136;-58
2021/06/21 09:01:24;;;;;;;3.38;0.95;;;25.10;53.70;;;;;;5023979;28;20104;-58
2021/06/21 09:03:50;;;;;;;3.22;1.10;;;25.00;53.60;;;;;;5014759;28;20022;-58
2021/06/21 09:06:21;;;;;;;4.78;1.20;;;25.20;53.30;;;;;;5028206;28;20026;-58
2021/06/21 09:08:56;;;;;;;2.88;1.13;;;25.10;53.60;;;;;;5013425;28;20030;-58
2021/06/21 09:11:50;;;;;;;4.78;1.20;;;25.40;53.40;;;;;;5024167;28;20030;-57
2021/06/21 09:14:24;;;;;;;3.35;1.10;;;25.60;53.30;;;;;;5032388;28;20435;-58
2021/06/21 09:16:54;;;;;;;4.40;1.17;;;25.60;52.40;;;;;;5032909;28;20032;-58
2021/06/21 09:19:21;;;;;;;3.30;1.10;;;25.60;52.60;;;;;;5010562;28;20045;-58
2021/06/21 09:21:47;;;;;;;1.98;0.90;;;25.70;52.60;;;;;;5012096;28;20037;-58
2021/06/21 09:24:18;;;;;;;7.78;1.20;;;25.70;52.70;;;;;;5012518;28;20030;-58
2021/06/21 09:26:45;;;;;;;;;;;25.70;52.70;;;;;;5013020;28;20030;-57
2021/06/21 09:29:11;;;;;;;5.05;1.38;;;25.80;52.70;;;;;;5012520;28;19913;-55
2021/06/21 09:31:57;;;;;;;5.18;1.92;;;25.80;52.60;;;;;;5012766;28;20026;-58
2021/06/21 09:34:24;;;;;;;5.07;1.38;;;25.80;52.80;;;;;;5012700;28;20034;-58
2021/06/21 09:36:52;;;;;;;6.05;1.42;;;25.90;53.10;;;;;;5012856;28;20026;-58
2021/06/21 09:39:19;;;;;;;4.35;1.10;;;25.80;51.50;;;;;;5011799;28;20408;-58
2021/06/21 09:42:02;;;;;;;4.10;1.15;;;25.90;51.70;;;;;;5027099;28;20075;-58
2021/06/21 09:44:35;;;;;;;2.97;0.90;;;25.90;51.40;;;;;;5031291;28;20100;-58
2021/06/21 09:47:10;;;;;;;3.00;0.85;;;25.90;51.10;;;;;;5031894;28;20037;-58
2021/06/21 09:49:36;;;;;;;5.57;1.15;;;26.00;51.20;;;;;;5031754;28;20065;-58
2021/06/21 09:52:03;;;;;;;4.35;1.35;;;25.90;51.00;;;;;;5031922;28;20103;-59
2021/06/21 09:54:33;;;;;;;4.07;1.10;;;25.90;51.20;;;;;;5030271;28;20057;-58
2021/06/21 09:57:12;;;;;;;5.03;1.08;;;26.00;51.00;;;;;;5032535;28;20037;-59
2021/06/21 09:59:50;;;;;;;6.35;2.35;;;26.00;50.90;;;;;;5032511;28;20033;-58
2021/06/21 10:02:25;;;;;;;5.20;1.48;;;26.00;50.90;;;;;;5031588;28;20071;-58
2021/06/21 10:04:50;;;;;;;4.88;1.13;;;25.90;51.00;;;;;;5032223;28;20037;-58
2021/06/21 10:07:27;;;;;;;3.80;2.00;;;26.00;51.20;;;;;;5026921;28;20391;-58
2021/06/21 10:10:05;;;;;;;5.35;0.90;;;26.10;51.00;;;;;;5012287;28;20080;-59
2021/06/21 10:12:31;;;;;;;7.82;1.20;;;26.20;51.10;;;;;;4992093;28;20101;-58
2021/06/21 10:14:56;;;;;;;2.63;1.10;;;26.10;50.50;;;;;;4992909;28;20109;-59
2021/06/21 10:17:22;;;;;;;3.78;1.13;;;26.10;50.80;;;;;;4991544;28;20412;-58
2021/06/21 10:19:48;;;;;;;3.55;1.30;;;26.20;51.00;;;;;;4992614;28;20068;-58
2021/06/21 10:22:14;;;;;;;2.13;1.10;;;26.10;51.10;;;;;;4991756;28;20098;-58
2021/06/21 10:24:41;;;;;;;5.40;1.33;;;26.20;50.90;;;;;;4992525;28;20487;-59
2021/06/21 10:27:07;;;;;;;5.30;1.10;;;26.30;51.00;;;;;;4992735;28;20034;-58
2021/06/21 10:29:35;;;;;;;2.75;1.10;;;26.30;51.00;;;;;;4991973;28;20032;-58
2021/06/21 10:32:04;;;;;;;4.95;1.10;;;26.40;51.30;;;;;;4992312;28;20057;-59
2021/06/21 10:34:30;;;;;;;2.65;0.85;;;26.50;51.00;;;;;;4991723;28;20026;-57
2021/06/21 10:36:58;;;;;;;4.63;1.23;;;26.50;51.70;;;;;;4992495;28;20022;-59
2021/06/21 10:39:29;;;;;;;4.72;1.20;;;26.60;51.40;;;;;;4991656;28;20038;-58
2021/06/21 10:42:07;;;;;;;3.50;1.20;;;26.50;51.00;;;;;;5024397;28;20029;-59
2021/06/21 10:44:44;;;;;;;3.05;1.10;;;26.50;50.70;;;;;;5030949;28;20042;-59
2021/06/21 10:47:32;;;;;;;3.35;1.70;;;26.50;50.60;;;;;;5031212;28;20033;-53
2021/06/21 10:50:13;;;;;;;5.80;1.92;;;26.50;51.00;;;;;;5031635;28;20425;-58
2021/06/21 10:53:00;;;;;;;4.17;1.20;;;26.60;50.80;;;;;;5034402;28;20498;-58
2021/06/21 10:55:32;;;;;;;4.22;1.30;;;26.70;50.80;;;;;;5034841;28;20033;-58
2021/06/21 10:58:28;;;;;;;2.45;1.10;;;26.70;50.90;;;;;;5035961;28;20034;-59
2021/06/21 11:00:54;;;;;;;4.22;1.13;;;26.70;50.70;;;;;;5035551;28;20103;-58
2021/06/21 11:03:33;;;;;;;4.85;1.67;;;26.70;50.70;;;;;;5034493;28;20474;-58
2021/06/21 11:06:06;;;;;;;3.30;1.42;;;26.70;50.40;;;;;;5035632;28;20033;-58
2021/06/21 11:08:51;;;;;;;3.15;1.10;;;26.70;49.80;;;;;;5019961;28;20095;-58
2021/06/21 11:11:35;;;;;;;3.50;1.23;;;26.70;50.10;;;;;;5025621;28;20478;-58
2021/06/21 11:14:12;;;;;;;3.67;1.23;;;26.80;50.90;;;;;;5035528;28;20079;-59
2021/06/21 11:16:41;;;;;;;3.35;1.13;;;26.80;51.20;;;;;;5035841;28;20112;-59
2021/06/21 11:19:20;;;;;;;3.58;1.20;;;26.90;51.10;;;;;;5035057;28;20038;-57
2021/06/21 11:22:00;;;;;;;5.15;1.77;;;26.90;52.30;;;;;;5035254;28;20479;-58
2021/06/21 11:24:45;;;;;;;2.75;1.33;;;26.90;52.30;;;;;;5034432;28;20425;-59
2021/06/21 11:27:18;;;;;;;3.38;0.88;;;26.90;52.60;;;;;;5034716;28;20036;-56
2021/06/21 11:29:52;;;;;;;2.47;0.90;;;26.90;52.20;;;;;;5035396;28;20033;-59
2021/06/21 11:32:18;;;;;;;2.30;1.20;;;26.90;52.30;;;;;;5034308;28;20176;-59
2021/06/21 11:34:56;;;;;;;2.70;1.05;;;26.90;52.20;;;;;;5034892;28;20108;-59
2021/06/21 11:37:40;;;;;;;2.67;0.90;;;27.00;52.30;;;;;;5033257;28;20052;-59
2021/06/21 11:40:13;;;;;;;1.30;0.82;;;26.90;52.20;;;;;;5034832;28;20033;-59
2021/06/21 11:42:40;;;;;;;1.63;1.02;;;27.00;52.30;;;;;;5035152;28;20029;-59
2021/06/21 11:45:06;;;;;;;2.60;0.93;;;26.90;52.30;;;;;;5034625;28;20018;-58
2021/06/21 11:47:34;;;;;;;1.40;1.20;;;27.00;52.40;;;;;;5033997;28;20025;-59
2021/06/21 11:50:15;;;;;;;1.42;0.63;;;27.00;52.50;;;;;;5034739;28;20046;-59
2021/06/21 11:52:42;;;;;;;1.00;0.82;;;27.00;52.50;;;;;;5034707;28;20049;-58
2021/06/21 11:55:15;;;;;;;3.42;1.45;;;27.00;52.40;;;;;;5034618;28;20037;-59
2021/06/21 11:57:46;;;;;;;2.17;1.30;;;27.00;52.50;;;;;;5034579;28;20546;-59
2021/06/21 12:00:14;;;;;;;3.28;1.15;;;27.00;52.50;;;;;;5034129;28;20116;-55
2021/06/21 12:02:40;;;;;;;3.30;0.80;;;27.00;52.50;;;;;;5034186;28;20037;-58
2021/06/21 12:05:16;;;;;;;1.60;0.80;;;27.00;52.50;;;;;;5015819;28;20037;-59
2021/06/21 12:07:44;;;;;;;1.67;0.90;;;27.00;52.60;;;;;;5013666;28;20038;-59
2021/06/21 12:10:18;;;;;;;4.85;1.27;;;27.00;52.60;;;;;;5016034;28;20104;-56
2021/06/21 12:12:45;;;;;;;1.95;1.30;;;27.00;52.60;;;;;;5034398;28;20017;-59
2021/06/21 12:15:25;;;;;;;3.03;0.85;;;27.00;52.60;;;;;;5033876;28;20029;-55
2021/06/21 12:17:51;;;;;;;3.03;0.77;;;27.00;52.60;;;;;;5034214;28;20029;-59
2021/06/21 12:20:20;;;;;;;2.08;1.13;;;27.00;52.70;;;;;;5033698;28;20371;-59
2021/06/21 12:23:00;;;;;;;1.17;0.82;;;27.00;52.70;;;;;;5034036;28;20057;-59
2021/06/21 12:25:38;;;;;;;2.22;0.90;;;27.00;52.70;;;;;;5033549;28;20033;-58
2021/06/21 12:28:19;;;;;;;1.17;0.60;;;27.00;52.80;;;;;;5034121;28;20030;-58
2021/06/21 12:30:52;;;;;;;;;;;27.00;52.80;;;;;;5034512;28;20021;-59
2021/06/21 12:33:21;;;;;;;2.38;1.00;;;27.10;52.90;;;;;;5033112;28;20004;-59
2021/06/21 12:36:07;;;;;;;2.22;1.38;;;27.00;52.90;;;;;;5033742;28;20383;-58
2021/06/21 12:38:34;;;;;;;2.67;1.00;;;27.00;52.90;;;;;;5032921;28;20025;-58
2021/06/21 12:41:13;;;;;;;2.00;0.80;;;27.00;52.90;;;;;;5033689;28;20052;-59
2021/06/21 12:43:39;;;;;;;2.55;0.80;;;27.00;52.90;;;;;;5033446;28;20033;-59
2021/06/21 12:46:19;;;;;;;1.20;0.77;;;27.00;53.00;;;;;;5033867;28;20096;-59
2021/06/21 12:48:45;;;;;;;2.10;0.80;;;27.10;53.20;;;;;;5033640;28;20064;-59
2021/06/21 12:51:13;;;;;;;2.35;0.80;;;27.00;53.70;;;;;;5032517;28;20446;-56
2021/06/21 12:53:43;;;;;;;1.40;0.77;;;27.00;53.00;;;;;;5033594;28;20045;-58
2021/06/21 12:56:18;;;;;;;1.40;0.70;;;27.00;53.00;;;;;;5033514;28;20021;-59
2021/06/21 12:58:44;;;;;;;2.25;1.27;;;27.00;53.10;;;;;;5033402;28;20279;-58
2021/06/21 13:01:20;;;;;;;1.83;0.75;;;27.10;53.10;;;;;;5033170;28;20030;-56